Temperatura máxima Desde: 26-07-2016 12:00 Hasta: 19:59 Aviso por: Temperatura máxima Nivel: Naranja info button
 

Informes METAR

 

LEZL - Sevilla, Spain
Distancia de la estación: ENE 8km
Actualización: 26/07/2016 17:30
Despejado
Despejado
 Viento de SO
Viento: SO 11 km/h
Temperatura: 39°C
Rocío: 10°C
Humedad: 17%
Barómetro: 1014 hPa
Resumen: Despejado
Visibilidad: mayor de 10 km
2016/07/26 15:30 LEZL 261530Z 23006KT 160V290 CAVOK 39/10 Q1014 NOSIG
LEMO - Morón, Spain
Distancia de la estación: SE 43km
Actualización: 26/07/2016 18:00
Despejado
Despejado
 Viento de ONO
Viento: ONO 15 km/h
Temperatura: 40°C
Rocío: 13°C
Humedad: 20%
Barómetro: 1014 hPa
Resumen: Despejado
Visibilidad: mayor de 10 km
2016/07/26 16:00 LEMO 261600Z 29008KT 240V320 CAVOK 40/13 Q1014 NOSIG
LEJR - Jeréz, Spain
Distancia de la estación: S 71km
Actualización: 26/07/2016 18:00
Despejado
Despejado
 Viento de S
Viento: S 22 km/h
Temperatura: 38°C
Rocío: 11°C
Humedad: 20%
Barómetro: 1014 hPa
Resumen: Despejado
Visibilidad: mayor de 10 km
2016/07/26 16:00 LEJR 261600Z 19012KT 160V230 CAVOK 38/11 Q1014
 
LERT - Rota, Spain
Distancia de la estación: SSO 89km
Actualización: 26/07/2016 17:00
Despejado
Despejado
 Viento de OSO
Viento: OSO 19 km/h
Temperatura: 29°C
Índice de calor: 31°C
Rocío: 21°C
Humedad: 62%
Barómetro: 1015 hPa
Resumen: Despejado
Visibilidad: mayor de 10 km
2016/07/26 15:00 LERT 261500Z 25010KT CAVOK 29/21 Q1015 NOSIG
LEMG - Málaga, Spain
Distancia de la estación: ESE 157km
Actualización: 26/07/2016 17:30
Despejado
Despejado
 Viento de SSE
Viento: SSE 9 km/h
Temperatura: 29°C
Índice de calor: 28°C
Rocío: 14°C
Humedad: 40%
Barómetro: 1017 hPa
Resumen: Despejado
Visibilidad: mayor de 10 km
2016/07/26 15:30 LEMG 261530Z 15005KT 080V190 CAVOK 29/14 Q1017 NOSIG
LEBA - Córdoba, Spain
Distancia de la estación: ENE 115km
Actualización: 26/07/2016 17:30
Despejado
Despejado
 Viento de SSO
Viento: SSO 15 km/h
Temperatura: 40°C
Rocío: 8°C
Humedad: 14%
Barómetro: 1014 hPa
Nubes: Despejado
Visibilidad: 10 km
2016/07/26 15:30 LEBA 261530Z AUTO 21008KT 150V260 9999 NCD 40/08 Q1014
 
LEGR - Granada, Spain
Distancia de la estación: E 198km
Actualización: 26/07/2016 17:30
Despejado
Despejado
 Viento de variable
Viento: variable 6 km/h
Temperatura: 39°C
Rocío: 7°C
Humedad: 14%
Barómetro: 1018 hPa
Resumen: Despejado
Visibilidad: mayor de 10 km
2016/07/26 15:30 LEGR 261530Z VRB03KT CAVOK 39/07 Q1018
LEAM - Almería, Spain
Distancia de la estación: E 326km
Actualización: 26/07/2016 17:30
Despejado
Despejado
 Viento de E
Viento: E 19 km/h
Temperatura: 36°C
Rocío: 13°C
Humedad: 25%
Barómetro: 1016 hPa
Resumen: Despejado
Visibilidad: mayor de 10 km
2016/07/26 15:30 LEAM 261530Z 09010KT 040V120 CAVOK 36/13 Q1016
LEMD - Madrid/Barajas, Spain
Distancia de la estación: NNE 402km
Actualización: 26/07/2016 17:30
Despejado
Despejado
 Viento de N
Viento: N 2 km/h
Temperatura: 38°C
Rocío: 5°C
Humedad: 13%
Barómetro: 1017 hPa
Resumen: Despejado
Visibilidad: mayor de 10 km
2016/07/26 15:30 LEMD 261530Z 01001KT CAVOK 38/05 Q1017 NOSIG
 
LEVD - Valladolid, Spain
Distancia de la estación: N 492km
Actualización: 26/07/2016 17:30
Despejado
Despejado
 Viento de O
Viento: O 17 km/h
Temperatura: 34°C
Rocío: 4°C
Humedad: 15%
Barómetro: 1019 hPa
Resumen: Despejado
Visibilidad: mayor de 10 km
2016/07/26 15:30 LEVD 261530Z 26009KT 210V320 CAVOK 34/04 Q1019
LEBL - Barcelona, Spain
Distancia de la estación: NE 816km
Actualización: 26/07/2016 17:30
Poco nuboso
Poco nuboso
 Viento de SO
Viento: SO 30 km/h
Temperatura: 27°C
Índice de calor: 29°C
Rocío: 22°C
Humedad: 74%
Barómetro: 1017 hPa
Nubes: Poco nuboso
Visibilidad: 10 km
Detalles de las nubes: Poco nuboso 1524 m
2016/07/26 15:30 LEBL 261530Z 22016KT 9999 FEW050 27/22 Q1017 NOSIG
LEVC - Valencia, Spain
Distancia de la estación: ENE 535km
Actualización: 26/07/2016 17:30
Despejado
Despejado
 Viento de E
Viento: E 17 km/h
Temperatura: 31°C
Índice de calor: 33°C
Rocío: 19°C
Humedad: 49%
Barómetro: 1016 hPa
Resumen: Despejado
Visibilidad: mayor de 10 km
2016/07/26 15:30 LEVC 261530Z 09009KT 050V110 CAVOK 31/19 Q1016 NOSIG